createdAt,value
2018-02-07T00:02:21.175Z,-2.40
2018-02-07T00:04:47.791Z,-2.50
2018-02-07T00:07:14.437Z,-2.50
2018-02-07T00:09:40.828Z,-2.50
2018-02-07T00:12:07.199Z,-2.50
2018-02-07T00:14:33.645Z,-2.50
2018-02-07T00:17:00.055Z,-2.60
2018-02-07T00:19:26.441Z,-2.70
2018-02-07T00:21:53.568Z,-2.60
2018-02-07T00:24:19.982Z,-2.60
2018-02-07T00:26:46.460Z,-2.60
2018-02-07T00:29:13.865Z,-2.50
2018-02-07T00:31:40.230Z,-2.50
2018-02-07T00:34:06.632Z,-2.40
2018-02-07T00:36:33.062Z,-2.40
2018-02-07T00:38:59.599Z,-2.40
2018-02-07T00:41:26.676Z,-2.40
2018-02-07T00:43:53.033Z,-2.30
2018-02-07T00:46:20.139Z,-2.40
2018-02-07T00:48:46.527Z,-2.40
2018-02-07T00:51:13.899Z,-2.40
2018-02-07T00:53:40.470Z,-2.40
2018-02-07T00:56:08.110Z,-2.40
2018-02-07T00:58:34.749Z,-2.30
2018-02-07T01:01:01.284Z,-2.30
2018-02-07T01:03:27.921Z,-2.20
2018-02-07T01:05:55.339Z,-2.20
2018-02-07T01:08:23.438Z,-2.00
2018-02-07T01:10:49.815Z,-2.00
2018-02-07T01:13:17.169Z,-2.00
2018-02-07T01:15:43.555Z,-2.00
2018-02-07T01:18:10.207Z,-2.00
2018-02-07T01:20:36.582Z,-1.80
2018-02-07T01:23:03.893Z,-1.80
2018-02-07T01:25:30.533Z,-1.80
2018-02-07T01:27:57.170Z,-1.80
2018-02-07T01:30:23.705Z,-1.80
2018-02-07T01:32:50.239Z,-1.80
2018-02-07T01:35:16.606Z,-1.70
2018-02-07T01:37:44.129Z,-1.60
2018-02-07T01:40:10.768Z,-1.60
2018-02-07T01:42:37.406Z,-1.60
2018-02-07T01:45:03.839Z,-1.70
2018-02-07T01:47:30.204Z,-1.60
2018-02-07T01:49:56.568Z,-1.60
2018-02-07T01:52:23.754Z,-1.70
2018-02-07T01:54:50.142Z,-1.70
2018-02-07T01:57:17.287Z,-1.80
2018-02-07T01:59:44.590Z,-1.80
2018-02-07T02:02:11.125Z,-1.80
2018-02-07T02:04:38.474Z,-1.70
2018-02-07T02:07:04.886Z,-1.80
2018-02-07T02:09:31.450Z,-1.70
2018-02-07T02:11:57.863Z,-1.80
2018-02-07T02:14:25.189Z,-1.90
2018-02-07T02:16:52.316Z,-1.80
2018-02-07T02:19:18.923Z,-1.90
2018-02-07T02:21:45.340Z,-1.90
2018-02-07T02:24:11.968Z,-1.80
2018-02-07T02:26:38.994Z,-1.80
2018-02-07T02:29:06.051Z,-1.80
2018-02-07T02:31:33.099Z,-1.80
2018-02-07T02:34:00.120Z,-1.80
2018-02-07T02:36:40.102Z,-1.90
2018-02-07T02:39:07.143Z,-1.80
2018-02-07T02:41:34.191Z,-1.70
2018-02-07T02:44:01.215Z,-1.70
2018-02-07T02:46:27.567Z,-1.70
2018-02-07T02:48:54.594Z,-1.60
2018-02-07T02:51:20.884Z,-1.60
2018-02-07T02:53:47.191Z,-1.60
2018-02-07T02:56:13.479Z,-1.70
2018-02-07T02:58:39.758Z,-1.70
2018-02-07T03:01:06.042Z,-1.80
2018-02-07T03:03:32.377Z,-1.80
2018-02-07T03:05:59.455Z,-1.70
2018-02-07T03:08:26.469Z,-1.80
2018-02-07T03:10:52.742Z,-1.90
2018-02-07T03:13:19.074Z,-1.90
2018-02-07T03:15:45.346Z,-2.00
2018-02-07T03:18:11.684Z,-1.90
2018-02-07T03:20:38.011Z,-1.80
2018-02-07T03:23:04.286Z,-1.90
2018-02-07T03:25:31.326Z,-1.90
2018-02-07T03:27:58.346Z,-1.80
2018-02-07T03:30:25.402Z,-1.90
2018-02-07T03:32:51.680Z,-1.90
2018-02-07T03:35:17.985Z,-1.90
2018-02-07T03:37:45.015Z,-1.90
2018-02-07T03:40:12.027Z,-1.80
2018-02-07T03:42:38.335Z,-1.80
2018-02-07T03:45:04.615Z,-1.80
2018-02-07T03:47:32.379Z,-1.90
2018-02-07T03:49:58.714Z,-1.90
2018-02-07T03:52:24.998Z,-1.80
2018-02-07T03:54:51.318Z,-2.00
2018-02-07T03:57:17.602Z,-2.00
2018-02-07T03:59:43.882Z,-2.00
2018-02-07T04:02:10.166Z,-1.90
2018-02-07T04:04:37.192Z,-1.80
2018-02-07T04:07:03.534Z,-1.90
2018-02-07T04:09:29.811Z,-1.90
2018-02-07T04:11:56.119Z,-2.00
2018-02-07T04:14:23.169Z,-1.90
2018-02-07T04:16:50.196Z,-1.90
2018-02-07T04:19:17.242Z,-1.80
2018-02-07T04:21:43.521Z,-1.80
2018-02-07T04:24:09.803Z,-1.80
2018-02-07T04:26:36.814Z,-1.80
2018-02-07T04:29:03.099Z,-1.80
2018-02-07T04:31:30.169Z,-1.90
2018-02-07T04:33:57.486Z,-1.90
2018-02-07T04:36:24.517Z,-1.80
2018-02-07T04:38:50.816Z,-1.90
2018-02-07T04:41:17.102Z,-1.80
2018-02-07T04:43:44.185Z,-1.80
2018-02-07T04:46:10.459Z,-1.80
2018-02-07T04:48:36.775Z,-1.80
2018-02-07T04:51:03.044Z,-1.80
2018-02-07T04:53:30.071Z,-1.70
2018-02-07T04:55:56.372Z,-1.70
2018-02-07T04:58:22.733Z,-1.60
2018-02-07T05:00:49.004Z,-1.60
2018-02-07T05:03:15.286Z,-1.70
2018-02-07T05:05:41.582Z,-1.60
2018-02-07T05:08:07.870Z,-1.70
2018-02-07T05:10:35.892Z,-1.80
2018-02-07T05:13:02.212Z,-1.80
2018-02-07T05:15:28.497Z,-1.70
2018-02-07T05:17:55.522Z,-1.70
2018-02-07T05:20:21.818Z,-1.70
2018-02-07T05:22:48.087Z,-1.70
2018-02-07T05:25:14.368Z,-1.60
2018-02-07T05:27:40.648Z,-1.60
2018-02-07T05:30:06.935Z,-1.40
2018-02-07T05:32:33.256Z,-1.40
2018-02-07T05:34:59.528Z,-1.40
2018-02-07T05:37:25.811Z,-1.50
2018-02-07T05:39:52.082Z,-1.40
2018-02-07T05:42:18.362Z,-1.50
2018-02-07T05:44:44.651Z,-1.50
2018-02-07T05:47:10.918Z,-1.50
2018-02-07T05:49:37.226Z,-1.70
2018-02-07T05:52:04.243Z,-1.70
2018-02-07T05:54:30.527Z,-1.70
2018-02-07T05:56:56.826Z,-1.70
2018-02-07T05:59:23.842Z,-1.70
2018-02-07T06:01:50.138Z,-1.70
2018-02-07T06:04:16.436Z,-1.60
2018-02-07T06:06:43.451Z,-1.80
2018-02-07T06:09:10.369Z,-1.80
2018-02-07T06:11:38.015Z,-1.80
2018-02-07T06:14:04.299Z,-1.90
2018-02-07T06:16:30.576Z,-1.90
2018-02-07T06:18:56.866Z,-1.70
2018-02-07T06:21:23.163Z,-1.60
2018-02-07T06:23:49.476Z,-1.80
2018-02-07T06:26:16.791Z,-1.80
2018-02-07T06:28:43.804Z,-1.80
2018-02-07T06:31:10.097Z,-1.80
2018-02-07T06:33:36.409Z,-1.70
2018-02-07T06:36:03.471Z,-1.70
2018-02-07T06:38:29.742Z,-1.70
2018-02-07T06:40:56.010Z,-1.50
2018-02-07T06:43:23.031Z,-1.40
2018-02-07T06:45:49.306Z,-1.40
2018-02-07T06:48:15.627Z,-1.30
2018-02-07T06:50:41.907Z,-1.30
2018-02-07T06:53:08.197Z,-1.40
2018-02-07T06:55:34.513Z,-1.50
2018-02-07T06:58:01.539Z,-1.50
2018-02-07T07:00:27.827Z,-1.50
2018-02-07T07:02:54.124Z,-1.60
2018-02-07T07:05:20.403Z,-1.60
2018-02-07T07:07:46.678Z,-1.60
2018-02-07T07:10:13.702Z,-1.70
2018-02-07T07:12:39.991Z,-1.70
2018-02-07T07:15:06.311Z,-1.60
2018-02-07T07:17:32.599Z,-1.60
2018-02-07T07:19:58.891Z,-1.70
2018-02-07T07:22:25.182Z,-1.80
2018-02-07T07:24:52.198Z,-1.90
2018-02-07T07:27:18.494Z,-2.00
2018-02-07T07:29:44.770Z,-1.80
2018-02-07T07:32:11.860Z,-1.70
2018-02-07T07:34:38.119Z,-1.70
2018-02-07T07:37:04.403Z,-1.50
2018-02-07T07:39:31.704Z,-1.50
2018-02-07T07:41:57.986Z,-1.60
2018-02-07T07:44:24.276Z,-1.60
2018-02-07T07:46:50.566Z,-1.60
2018-02-07T07:49:16.853Z,-1.70
2018-02-07T07:51:44.931Z,-1.80
2018-02-07T07:54:11.966Z,-1.60
2018-02-07T07:56:38.992Z,-1.70
2018-02-07T07:59:05.279Z,-1.70
2018-02-07T08:01:31.558Z,-1.50
2018-02-07T08:03:57.863Z,-1.40
2018-02-07T08:06:24.134Z,-1.40
2018-02-07T08:08:51.164Z,-1.60
2018-02-07T08:11:17.442Z,-1.60
2018-02-07T08:13:43.710Z,-1.60
2018-02-07T08:16:10.009Z,-1.70
2018-02-07T08:18:36.279Z,-1.80
2018-02-07T08:21:02.576Z,-1.70
2018-02-07T08:23:28.854Z,-1.70
2018-02-07T08:25:55.155Z,-1.60
2018-02-07T08:28:21.458Z,-1.60
2018-02-07T08:30:47.729Z,-1.50
2018-02-07T08:33:14.007Z,-1.30
2018-02-07T08:35:42.043Z,-1.20
2018-02-07T08:38:08.314Z,-1.20
2018-02-07T08:40:35.358Z,-1.30
2018-02-07T08:43:01.679Z,-1.30
2018-02-07T08:45:27.938Z,-1.30
2018-02-07T08:47:54.951Z,-1.50
2018-02-07T08:50:21.242Z,-1.50
2018-02-07T08:52:47.534Z,-1.60
2018-02-07T08:55:14.562Z,-1.40
2018-02-07T08:57:40.849Z,-1.50
2018-02-07T09:00:07.155Z,-1.40
2018-02-07T09:02:34.170Z,-1.30
2018-02-07T09:05:00.466Z,-1.30
2018-02-07T09:07:26.754Z,-1.30
2018-02-07T09:09:53.787Z,-1.30
2018-02-07T09:12:20.834Z,-1.10
2018-02-07T09:14:47.851Z,-1.00
2018-02-07T09:17:14.191Z,-1.00
2018-02-07T09:19:40.462Z,-1.10
2018-02-07T09:22:07.486Z,-1.40
2018-02-07T09:24:33.771Z,-1.40
2018-02-07T09:27:00.107Z,-1.50
2018-02-07T09:29:26.403Z,-1.60
2018-02-07T09:31:52.683Z,-1.40
2018-02-07T09:34:18.962Z,-1.30
2018-02-07T09:36:45.983Z,-1.20
2018-02-07T09:39:12.262Z,-1.30
2018-02-07T09:41:38.563Z,-1.40
2018-02-07T09:44:05.606Z,-1.60
2018-02-07T09:46:32.622Z,-1.50
2018-02-07T09:48:58.906Z,-1.50
2018-02-07T09:51:25.191Z,-1.30
2018-02-07T09:53:51.504Z,-1.20
2018-02-07T09:56:17.782Z,-1.20
2018-02-07T09:58:44.062Z,-1.10
2018-02-07T10:01:10.338Z,-1.00
2018-02-07T10:03:37.370Z,-0.90
2018-02-07T10:06:04.406Z,-1.00
2018-02-07T10:08:30.719Z,-1.00
2018-02-07T10:10:57.110Z,-1.20
2018-02-07T10:13:23.399Z,-1.10
2018-02-07T10:15:49.678Z,-1.10
2018-02-07T10:18:16.019Z,-1.10
2018-02-07T10:20:42.299Z,-0.90
2018-02-07T10:23:09.318Z,-1.00
2018-02-07T10:25:35.600Z,-1.00
2018-02-07T10:28:01.875Z,-1.00
2018-02-07T10:30:28.178Z,-0.90
2018-02-07T10:32:54.486Z,-0.80
2018-02-07T10:35:20.762Z,-0.80
2018-02-07T10:37:47.035Z,-0.60
2018-02-07T10:40:14.059Z,-0.40
2018-02-07T10:42:40.354Z,-0.40
2018-02-07T10:45:06.635Z,-0.30
2018-02-07T10:47:34.900Z,-0.40
2018-02-07T10:50:01.173Z,-0.40
2018-02-07T10:52:27.447Z,-0.40
2018-02-07T10:54:53.746Z,-0.40
2018-02-07T10:57:20.023Z,-0.30
2018-02-07T10:59:47.053Z,-0.40
2018-02-07T11:02:14.350Z,-0.50
2018-02-07T11:04:41.643Z,-0.50
2018-02-07T11:07:07.990Z,-0.50
2018-02-07T11:09:34.300Z,-0.40
2018-02-07T11:12:00.587Z,-0.50
2018-02-07T11:14:27.602Z,-0.40
2018-02-07T11:16:53.874Z,-0.40
2018-02-07T11:19:20.173Z,-0.30
2018-02-07T11:21:46.447Z,-0.30
2018-02-07T11:24:12.723Z,-0.20
2018-02-07T11:26:39.027Z,-0.20
2018-02-07T11:29:05.344Z,0.00
2018-02-07T11:31:31.637Z,0.10
2018-02-07T11:33:58.670Z,0.20
2018-02-07T11:36:25.022Z,0.10
2018-02-07T11:38:51.304Z,0.20
2018-02-07T11:41:17.579Z,0.00
2018-02-07T11:43:44.615Z,-0.60
2018-02-07T11:46:12.242Z,-0.60
2018-02-07T11:48:38.514Z,-0.70
2018-02-07T11:51:05.911Z,-0.80
2018-02-07T11:53:32.198Z,-0.80
2018-02-07T11:55:59.253Z,-0.50
2018-02-07T11:58:25.535Z,-0.50
2018-02-07T12:00:51.822Z,-0.40
2018-02-07T12:03:18.099Z,-0.40
2018-02-07T12:05:44.378Z,-0.50
2018-02-07T12:08:11.726Z,-0.40
2018-02-07T12:10:38.007Z,-0.40
2018-02-07T12:13:04.282Z,-0.30
2018-02-07T12:15:31.294Z,-0.30
2018-02-07T12:17:57.584Z,-0.30
2018-02-07T12:20:23.886Z,-0.20
2018-02-07T12:22:50.902Z,-0.30
2018-02-07T12:25:17.205Z,-0.30
2018-02-07T12:27:43.479Z,-0.20
2018-02-07T12:30:10.506Z,-0.10
2018-02-07T12:32:36.787Z,-0.20
2018-02-07T12:35:03.091Z,-0.10
2018-02-07T12:37:30.124Z,-0.20
2018-02-07T12:39:56.427Z,-0.20
2018-02-07T12:42:22.731Z,-0.10
2018-02-07T12:44:49.013Z,-0.10
2018-02-07T12:47:15.302Z,-0.10
2018-02-07T12:49:42.716Z,0.00
2018-02-07T12:52:09.038Z,0.00
2018-02-07T12:54:35.546Z,0.20
2018-02-07T12:57:02.067Z,0.20
2018-02-07T12:59:28.406Z,0.20
2018-02-07T13:01:55.438Z,0.10
2018-02-07T13:04:22.450Z,0.00
2018-02-07T13:06:48.783Z,0.00
2018-02-07T13:09:16.878Z,0.10
2018-02-07T13:11:44.179Z,0.10
2018-02-07T13:14:11.752Z,0.20
2018-02-07T13:16:38.034Z,0.20
2018-02-07T13:19:05.039Z,0.30
2018-02-07T13:21:31.318Z,0.30
2018-02-07T13:23:58.338Z,0.30
2018-02-07T13:26:24.639Z,0.30
2018-02-07T13:28:51.930Z,0.20
2018-02-07T13:31:18.230Z,0.00
2018-02-07T13:33:44.511Z,-0.10
2018-02-07T13:36:11.534Z,-0.50
2018-02-07T13:38:38.608Z,-0.80
2018-02-07T13:41:05.626Z,-0.70
2018-02-07T13:43:32.959Z,-0.70
2018-02-07T13:45:59.242Z,-0.70
2018-02-07T13:48:25.563Z,-0.60
2018-02-07T13:50:52.627Z,-0.90
2018-02-07T13:53:18.914Z,-0.90
2018-02-07T13:55:47.742Z,-0.70
2018-02-07T13:58:15.146Z,-0.80
2018-02-07T14:00:47.718Z,-0.60
2018-02-07T14:03:14.065Z,-0.50
2018-02-07T14:05:40.349Z,-0.50
2018-02-07T14:08:06.621Z,-0.60
2018-02-07T14:10:32.899Z,-0.50
2018-02-07T14:12:59.944Z,-0.50
2018-02-07T14:15:26.954Z,-0.60
2018-02-07T14:17:53.248Z,-0.60
2018-02-07T14:20:19.527Z,-0.60
2018-02-07T14:22:45.860Z,-0.80
2018-02-07T14:25:12.908Z,-0.60
2018-02-07T14:27:40.203Z,-0.60
2018-02-07T14:30:06.479Z,-0.70
2018-02-07T14:32:32.790Z,-0.90
2018-02-07T14:34:59.069Z,-0.90
2018-02-07T14:37:26.115Z,-1.00
2018-02-07T14:39:53.155Z,-0.90
2018-02-07T14:42:20.175Z,-0.80
2018-02-07T14:44:46.457Z,-0.80
2018-02-07T14:47:12.786Z,-0.60
2018-02-07T14:49:39.090Z,-0.50
2018-02-07T14:52:06.102Z,-0.50
2018-02-07T14:54:32.374Z,-0.60
2018-02-07T14:56:59.407Z,-0.40
2018-02-07T14:59:26.449Z,-0.30
2018-02-07T15:01:52.747Z,-0.40
2018-02-07T15:04:19.019Z,-0.30
2018-02-07T15:06:46.031Z,-0.30
2018-02-07T15:09:12.318Z,-0.30
2018-02-07T15:11:38.608Z,-0.10
2018-02-07T15:14:05.644Z,0.10
2018-02-07T15:16:31.935Z,0.10
2018-02-07T15:18:58.225Z,0.10
2018-02-07T15:21:27.030Z,0.10
2018-02-07T15:23:54.059Z,-0.10
2018-02-07T15:26:20.702Z,-0.10
2018-02-07T15:28:47.730Z,-0.10
2018-02-07T15:31:14.016Z,-0.10
2018-02-07T15:33:40.328Z,-0.10
2018-02-07T15:36:07.346Z,-0.10
2018-02-07T15:38:33.761Z,-0.10
2018-02-07T15:41:00.052Z,0.00
2018-02-07T15:43:26.374Z,0.10
2018-02-07T15:45:52.680Z,0.10
2018-02-07T15:48:18.955Z,0.10
2018-02-07T15:50:45.266Z,0.10
2018-02-07T15:53:11.699Z,0.20
2018-02-07T15:55:38.003Z,0.10
2018-02-07T15:58:05.039Z,0.10
2018-02-07T16:00:31.342Z,0.00
2018-02-07T16:02:57.660Z,0.10
2018-02-07T16:05:23.938Z,0.10
2018-02-07T16:07:51.444Z,0.00
2018-02-07T16:10:17.781Z,0.00
2018-02-07T16:12:44.071Z,-0.10
2018-02-07T16:15:11.117Z,0.00
2018-02-07T16:17:38.122Z,0.00
2018-02-07T16:20:06.068Z,-0.10
2018-02-07T16:22:32.397Z,-0.10
2018-02-07T16:24:58.718Z,-0.10
2018-02-07T16:27:25.021Z,-0.10
2018-02-07T16:29:52.050Z,-0.10
2018-02-07T16:32:18.382Z,-0.10
2018-02-07T16:34:44.671Z,-0.10
2018-02-07T16:37:10.950Z,-0.10
2018-02-07T16:39:37.996Z,-0.10
2018-02-07T16:42:04.322Z,-0.10
2018-02-07T16:44:30.660Z,-0.10
2018-02-07T16:46:57.070Z,-0.10
2018-02-07T16:49:23.364Z,-0.30
2018-02-07T16:51:49.698Z,-0.50
2018-02-07T16:54:16.018Z,-0.40
2018-02-07T16:56:42.324Z,-0.40
2018-02-07T16:59:08.634Z,-0.40
2018-02-07T17:01:35.023Z,-0.40
2018-02-07T17:04:01.359Z,-0.50
2018-02-07T17:06:27.687Z,-0.60
2018-02-07T17:08:53.976Z,-0.70
2018-02-07T17:11:21.020Z,-0.70
2018-02-07T17:13:48.071Z,-0.70
2018-02-07T17:16:15.136Z,-0.70
2018-02-07T17:18:41.442Z,-0.70
2018-02-07T17:21:08.517Z,-0.70
2018-02-07T17:23:34.843Z,-0.80
2018-02-07T17:26:01.915Z,-0.70
2018-02-07T17:28:28.230Z,-0.70
2018-02-07T17:30:54.547Z,-0.70
2018-02-07T17:33:21.654Z,-0.70
2018-02-07T17:35:48.001Z,-0.80
2018-02-07T17:38:14.322Z,-0.70
2018-02-07T17:40:40.663Z,-0.80
2018-02-07T17:43:08.115Z,-1.00
2018-02-07T17:45:34.437Z,-0.80
2018-02-07T17:48:00.779Z,-0.80
2018-02-07T17:50:27.076Z,-0.90
2018-02-07T17:52:53.398Z,-0.80
2018-02-07T17:55:19.715Z,-0.90
2018-02-07T17:57:46.002Z,-0.90
2018-02-07T18:00:13.217Z,-1.00
2018-02-07T18:02:39.501Z,-1.00
2018-02-07T18:05:06.546Z,-0.90
2018-02-07T18:07:33.583Z,-0.90
2018-02-07T18:09:59.863Z,-0.90
2018-02-07T18:12:26.150Z,-0.80
2018-02-07T18:14:53.173Z,-0.90
2018-02-07T18:17:19.474Z,-1.00
2018-02-07T18:19:45.758Z,-1.00
2018-02-07T18:22:13.678Z,-0.90
2018-02-07T18:24:40.202Z,-1.00
2018-02-07T18:27:06.634Z,-0.90
2018-02-07T18:29:33.011Z,-0.80
2018-02-07T18:31:59.294Z,-0.80
2018-02-07T18:34:26.666Z,-0.70
2018-02-07T18:36:53.013Z,-0.80
2018-02-07T18:39:20.114Z,-0.70
2018-02-07T18:41:47.483Z,-0.70
2018-02-07T18:44:13.874Z,-0.70
2018-02-07T18:46:40.179Z,-0.60
2018-02-07T18:49:06.498Z,-0.60
2018-02-07T18:51:32.787Z,-0.60
2018-02-07T18:53:59.095Z,-0.60
2018-02-07T18:56:26.126Z,-0.50
2018-02-07T18:58:52.431Z,-0.50
2018-02-07T19:01:18.741Z,-0.50
2018-02-07T19:03:45.026Z,-0.40
2018-02-07T19:06:11.321Z,-0.40
2018-02-07T19:08:37.670Z,-0.50
2018-02-07T19:11:04.583Z,-0.50
2018-02-07T19:13:31.648Z,-0.50
2018-02-07T19:15:58.004Z,-0.50
2018-02-07T19:18:24.512Z,-0.80
2018-02-07T19:20:51.666Z,-0.70
2018-02-07T19:23:17.994Z,-0.70
2018-02-07T19:25:44.302Z,-0.90
2018-02-07T19:28:10.758Z,-0.90
2018-02-07T19:30:37.115Z,-0.70
2018-02-07T19:33:03.602Z,-0.70
2018-02-07T19:35:29.895Z,-0.60
2018-02-07T19:37:56.928Z,-0.60
2018-02-07T19:40:23.467Z,-0.60
2018-02-07T19:42:49.803Z,-0.60
2018-02-07T19:45:16.087Z,-0.60
2018-02-07T19:47:42.379Z,-0.50
2018-02-07T19:50:09.410Z,-0.40
2018-02-07T19:52:35.738Z,-0.40
2018-02-07T19:55:02.028Z,-0.40
2018-02-07T19:57:28.318Z,-0.40
2018-02-07T19:59:55.338Z,-0.30
2018-02-07T20:02:21.623Z,-0.40
2018-02-07T20:04:47.983Z,-0.30
2018-02-07T20:07:14.400Z,-0.30
2018-02-07T20:09:40.706Z,-0.30
2018-02-07T20:12:06.994Z,-0.30
2018-02-07T20:14:33.286Z,-0.40
2018-02-07T20:16:59.672Z,-0.30
2018-02-07T20:19:26.694Z,-0.40
2018-02-07T20:21:52.984Z,-0.40
2018-02-07T20:24:19.259Z,-0.40
2018-02-07T20:26:45.567Z,-0.40
2018-02-07T20:29:11.862Z,-0.50
2018-02-07T20:31:38.166Z,-0.50
2018-02-07T20:34:05.205Z,-0.50
2018-02-07T20:36:32.234Z,-0.50
2018-02-07T20:38:58.536Z,-0.50
2018-02-07T20:41:25.342Z,-0.50
2018-02-07T20:43:52.362Z,-0.40
2018-02-07T20:46:18.650Z,-0.50
2018-02-07T20:48:44.967Z,-0.40
2018-02-07T20:51:11.251Z,-0.40
2018-02-07T20:53:37.566Z,-0.40
2018-02-07T20:56:03.846Z,-0.40
2018-02-07T20:58:31.879Z,-0.30
2018-02-07T21:00:58.198Z,-0.30
2018-02-07T21:03:24.503Z,-0.30
2018-02-07T21:05:50.806Z,-0.40
2018-02-07T21:08:17.847Z,-0.50
2018-02-07T21:10:44.931Z,-0.60
2018-02-07T21:13:11.206Z,-0.60
2018-02-07T21:15:37.491Z,-0.60
2018-02-07T21:18:03.798Z,-0.60
2018-02-07T21:20:30.100Z,-0.50
2018-02-07T21:22:57.160Z,-0.40
2018-02-07T21:25:24.193Z,-0.40
2018-02-07T21:27:51.483Z,-0.40
2018-02-07T21:30:17.804Z,-0.50
2018-02-07T21:32:44.081Z,-0.50
2018-02-07T21:35:10.359Z,-0.50
2018-02-07T21:37:37.403Z,-0.60
2018-02-07T21:40:04.438Z,-0.60
2018-02-07T21:42:31.497Z,-0.50
2018-02-07T21:44:58.560Z,-0.60
2018-02-07T21:47:24.850Z,-0.60
2018-02-07T21:49:51.155Z,-0.80
2018-02-07T21:52:17.475Z,-0.80
2018-02-07T21:54:43.791Z,-0.80
2018-02-07T21:57:10.074Z,-0.90
2018-02-07T21:59:36.358Z,-0.90
2018-02-07T22:02:02.661Z,-0.90
2018-02-07T22:04:28.959Z,-0.90
2018-02-07T22:06:55.276Z,-0.90
2018-02-07T22:09:21.554Z,-0.90
2018-02-07T22:11:47.822Z,-0.80
2018-02-07T22:14:14.138Z,-0.80
2018-02-07T22:16:40.407Z,-0.90
2018-02-07T22:19:07.466Z,-0.90
2018-02-07T22:21:34.494Z,-1.00
2018-02-07T22:24:04.270Z,-1.00
2018-02-07T22:26:30.579Z,-1.20
2018-02-07T22:28:56.863Z,-1.10
2018-02-07T22:31:23.154Z,-1.20
2018-02-07T22:33:49.443Z,-1.10
2018-02-07T22:36:15.846Z,-1.10
2018-02-07T22:38:42.127Z,-1.30
2018-02-07T22:41:09.178Z,-1.20
2018-02-07T22:43:36.231Z,-1.20
2018-02-07T22:46:02.568Z,-1.20
2018-02-07T22:48:29.613Z,-1.30
2018-02-07T22:50:55.894Z,-1.30
2018-02-07T22:53:22.219Z,-1.30
2018-02-07T22:55:48.531Z,-1.20
2018-02-07T22:58:15.562Z,-1.20
2018-02-07T23:00:42.602Z,-1.30
2018-02-07T23:03:08.927Z,-1.30
2018-02-07T23:05:35.212Z,-1.40
2018-02-07T23:08:01.514Z,-1.30
2018-02-07T23:10:28.559Z,-1.30
2018-02-07T23:12:55.587Z,-1.20
2018-02-07T23:15:22.629Z,-1.10
2018-02-07T23:17:48.925Z,-1.10
2018-02-07T23:20:15.230Z,-1.10
2018-02-07T23:22:44.046Z,-1.20
2018-02-07T23:25:15.223Z,-1.20
2018-02-07T23:27:41.507Z,-1.20
2018-02-07T23:30:07.814Z,-1.20
2018-02-07T23:32:34.849Z,-1.30
2018-02-07T23:35:02.195Z,-1.40
2018-02-07T23:37:28.518Z,-1.40
2018-02-07T23:39:54.802Z,-1.20
2018-02-07T23:42:21.079Z,-1.30
2018-02-07T23:44:47.362Z,-1.40
2018-02-07T23:47:13.651Z,-1.40
2018-02-07T23:49:39.986Z,-1.40
2018-02-07T23:52:06.255Z,-1.40
2018-02-07T23:54:32.529Z,-1.30
2018-02-07T23:56:58.835Z,-1.20
2018-02-07T23:59:25.130Z,-1.30
